Wawasan Ruby — 3EVU7 — position and weather

sailwx.info

Track history (hours):
 
Tides and Currents Weather Stations Pressure Air Temp Water Temp Dewpoint Dewpoint Depression Visibility Wind Speed Wind Dir Waves Ship Positions

Wawasan Ruby

Last reported at 2016-Sep-17 21:06 UTC. Time now 2016-Sep-25 05:27 UTC.
Position N 22°33' E 119°55'.

Length 146 m; draft 6.1 m.

Type: Tanker. MMSI: 355619000.

Date/timePositionNaut miles runAvg speedWind from/ knotsBaromVisibWave heightAir tempDewpointWater temp
2016-Sep-17 21:06N 22°33' E 119°55'43413.3
2016-Sep-16 12:33N 29°24' E 122°28'3110.5
2016-Sep-16 09:33N 29°51' E 122°12'2411.9
2016-Sep-16 07:32N 29°59' E 121°45'0 0.0
2016-Sep-15 04:33N 29°59' E 121°45'0 0.0
2016-Sep-15 03:33N 29°59' E 121°45'5 0.2
2016-Sep-14 07:33N 29°58' E 121°50'34 8.5
2016-Sep-14 03:33N 29°44' E 122°26'3 0.2
2016-Sep-13 16:33N 29°46' E 122°28'111 6.6
2016-Sep-12 23:33N 31°25' E 121°30'12 6.1
2016-Sep-12 21:33N 31°34' E 121°20'0 0.0
2016-Sep-12 19:32N 31°34' E 121°20'0 0.0
2016-Sep-12 17:33N 31°34' E 121°20'0 0.0
2016-Sep-12 14:33N 31°34' E 121°20'0 0.0
2016-Sep-12 13:33N 31°34' E 121°20'0 0.0
2016-Sep-12 12:32N 31°34' E 121°20'4 4.6
2016-Sep-12 11:33N 31°37' E 121°16'1313.1
2016-Sep-12 10:33N 31°45' E 121°04'3511.5
2016-Sep-12 07:33N 32°04' E 120°30'1212.4
2016-Sep-12 06:33N 31°58' E 120°18'14 4.6
2016-Sep-12 03:27N 31°58' E 120°01'0 0.0
2016-Sep-11 23:28N 31°58' E 120°01'0 0.0
2016-Sep-11 22:28N 31°58' E 120°01'0 0.0
2016-Sep-11 21:28N 31°58' E 120°01'0 0.0
2016-Sep-11 16:28N 31°58' E 120°01'0 0.0
2016-Sep-11 15:15N 31°58' E 120°01'0 0.0
2016-Sep-11 13:16N 31°58' E 120°01'0 0.0
2016-Sep-11 12:28N 31°58' E 120°01'0 0.0
2016-Sep-11 11:28N 31°58' E 120°01'0 0.0
2016-Sep-11 10:21N 31°58' E 120°01'0 0.0
2016-Sep-11 08:33N 31°58' E 120°01'0 0.2
2016-Sep-11 07:10N 31°58' E 120°02'21 5.8
2016-Sep-11 03:29N 31°58' E 120°27'0 0.0
2016-Sep-11 02:30N 31°58' E 120°27'0 0.0
2016-Sep-11 01:29N 31°58' E 120°27'0 0.0
2016-Sep-11 00:23N 31°58' E 120°27'0 0.0
2016-Sep-10 23:30N 31°58' E 120°27'0 0.0
2016-Sep-10 22:29N 31°58' E 120°27'0 0.0
2016-Sep-10 21:29N 31°58' E 120°27'0 0.0
2016-Sep-10 20:30N 31°58' E 120°27'0 0.0
2016-Sep-10 19:23N 31°58' E 120°27'0 0.0
2016-Sep-10 18:29N 31°58' E 120°27'0 0.0
2016-Sep-10 17:29N 31°58' E 120°27'0 0.0
2016-Sep-10 16:29N 31°58' E 120°27'0 0.0
2016-Sep-10 15:29N 31°58' E 120°27'0 0.0
2016-Sep-10 14:30N 31°58' E 120°27'0 0.0
2016-Sep-10 13:29N 31°58' E 120°27'0 0.0
2016-Sep-10 12:29N 31°58' E 120°27'0 0.0
2016-Sep-10 11:23N 31°58' E 120°27'0 0.0
2016-Sep-10 09:06N 31°58' E 120°27'0 0.0
2016-Sep-10 08:30N 31°58' E 120°27'0 0.0
2016-Sep-10 07:29N 31°58' E 120°27'0 0.0
2016-Sep-10 06:23N 31°58' E 120°27'0 0.1
2016-Sep-10 05:33N 31°59' E 120°27'5 5.1
2016-Sep-10 04:33N 32°02' E 120°31'25 0.9
2016-Sep-09 00:27N 31°48' E 120°56'1010.7
2016-Sep-08 23:33N 31°45' E 121°06'1111.3
2016-Sep-08 22:33N 31°37' E 121°16'5 5.1
2016-Sep-08 21:33N 31°34' E 121°21'0 0.0
2016-Sep-08 20:33N 31°34' E 121°21'0 0.0
2016-Sep-08 19:33N 31°34' E 121°21'0 0.1
2016-Sep-08 18:33N 31°34' E 121°21'0 0.0
2016-Sep-08 17:33N 31°34' E 121°21'0 0.0
2016-Sep-08 16:33N 31°34' E 121°21'0 0.0
2016-Sep-08 15:24N 31°34' E 121°21'0 0.0
2016-Sep-08 14:30N 31°34' E 121°21'0 0.0
2016-Sep-08 13:33N 31°34' E 121°21'0 0.0
2016-Sep-08 12:33N 31°34' E 121°21'0 0.5
2016-Sep-08 11:33N 31°33' E 121°21'9 8.8
2016-Sep-08 10:33N 31°27' E 121°28'7 7.5
2016-Sep-08 09:33N 31°23' E 121°36'10 9.3
2016-Sep-08 08:32N 31°19' E 121°45'  
Track history (hours):
 
Tides and Currents Weather Stations Pressure Air Temp Water Temp Dewpoint Dewpoint Depression Visibility Wind Speed Wind Dir Waves Ship Positions

Wawasan Ruby

Last reported at 2016-Sep-17 21:06 UTC. Time now 2016-Sep-25 05:27 UTC.
Position N 22°33' E 119°55'.

Length 146 m; draft 6.1 m.

Type: Tanker. MMSI: 355619000.

Date/timePositionNaut miles runAvg speedWind from/ knotsBaromVisibWave heightAir tempDewpointWater temp
2016-Sep-17 21:06N 22°33' E 119°55'43413.3
2016-Sep-16 12:33N 29°24' E 122°28'3110.5
2016-Sep-16 09:33N 29°51' E 122°12'2411.9
2016-Sep-16 07:32N 29°59' E 121°45'0 0.0
2016-Sep-15 04:33N 29°59' E 121°45'0 0.0
2016-Sep-15 03:33N 29°59' E 121°45'5 0.2
2016-Sep-14 07:33N 29°58' E 121°50'34 8.5
2016-Sep-14 03:33N 29°44' E 122°26'3 0.2
2016-Sep-13 16:33N 29°46' E 122°28'111 6.6
2016-Sep-12 23:33N 31°25' E 121°30'12 6.1
2016-Sep-12 21:33N 31°34' E 121°20'0 0.0
2016-Sep-12 19:32N 31°34' E 121°20'0 0.0
2016-Sep-12 17:33N 31°34' E 121°20'0 0.0
2016-Sep-12 14:33N 31°34' E 121°20'0 0.0
2016-Sep-12 13:33N 31°34' E 121°20'0 0.0
2016-Sep-12 12:32N 31°34' E 121°20'4 4.6
2016-Sep-12 11:33N 31°37' E 121°16'1313.1
2016-Sep-12 10:33N 31°45' E 121°04'3511.5
2016-Sep-12 07:33N 32°04' E 120°30'1212.4
2016-Sep-12 06:33N 31°58' E 120°18'14 4.6
2016-Sep-12 03:27N 31°58' E 120°01'0 0.0
2016-Sep-11 23:28N 31°58' E 120°01'0 0.0
2016-Sep-11 22:28N 31°58' E 120°01'0 0.0
2016-Sep-11 21:28N 31°58' E 120°01'0 0.0
2016-Sep-11 16:28N 31°58' E 120°01'0 0.0
2016-Sep-11 15:15N 31°58' E 120°01'0 0.0
2016-Sep-11 13:16N 31°58' E 120°01'0 0.0
2016-Sep-11 12:28N 31°58' E 120°01'0 0.0
2016-Sep-11 11:28N 31°58' E 120°01'0 0.0
2016-Sep-11 10:21N 31°58' E 120°01'0 0.0
2016-Sep-11 08:33N 31°58' E 120°01'0 0.2
2016-Sep-11 07:10N 31°58' E 120°02'21 5.8
2016-Sep-11 03:29N 31°58' E 120°27'0 0.0
2016-Sep-11 02:30N 31°58' E 120°27'0 0.0
2016-Sep-11 01:29N 31°58' E 120°27'0 0.0
2016-Sep-11 00:23N 31°58' E 120°27'0 0.0
2016-Sep-10 23:30N 31°58' E 120°27'0 0.0
2016-Sep-10 22:29N 31°58' E 120°27'0 0.0
2016-Sep-10 21:29N 31°58' E 120°27'0 0.0
2016-Sep-10 20:30N 31°58' E 120°27'0 0.0
2016-Sep-10 19:23N 31°58' E 120°27'0 0.0
2016-Sep-10 18:29N 31°58' E 120°27'0 0.0
2016-Sep-10 17:29N 31°58' E 120°27'0 0.0
2016-Sep-10 16:29N 31°58' E 120°27'0 0.0
2016-Sep-10 15:29N 31°58' E 120°27'0 0.0
2016-Sep-10 14:30N 31°58' E 120°27'0 0.0
2016-Sep-10 13:29N 31°58' E 120°27'0 0.0
2016-Sep-10 12:29N 31°58' E 120°27'0 0.0
2016-Sep-10 11:23N 31°58' E 120°27'0 0.0
2016-Sep-10 09:06N 31°58' E 120°27'0 0.0
2016-Sep-10 08:30N 31°58' E 120°27'0 0.0
2016-Sep-10 07:29N 31°58' E 120°27'0 0.0
2016-Sep-10 06:23N 31°58' E 120°27'0 0.1
2016-Sep-10 05:33N 31°59' E 120°27'5 5.1
2016-Sep-10 04:33N 32°02' E 120°31'25 0.9
2016-Sep-09 00:27N 31°48' E 120°56'1010.7
2016-Sep-08 23:33N 31°45' E 121°06'1111.3
2016-Sep-08 22:33N 31°37' E 121°16'5 5.1
2016-Sep-08 21:33N 31°34' E 121°21'0 0.0
2016-Sep-08 20:33N 31°34' E 121°21'0 0.0
2016-Sep-08 19:33N 31°34' E 121°21'0 0.1
2016-Sep-08 18:33N 31°34' E 121°21'0 0.0
2016-Sep-08 17:33N 31°34' E 121°21'0 0.0
2016-Sep-08 16:33N 31°34' E 121°21'0 0.0
2016-Sep-08 15:24N 31°34' E 121°21'0 0.0
2016-Sep-08 14:30N 31°34' E 121°21'0 0.0
2016-Sep-08 13:33N 31°34' E 121°21'0 0.0
2016-Sep-08 12:33N 31°34' E 121°21'0 0.5
2016-Sep-08 11:33N 31°33' E 121°21'9 8.8
2016-Sep-08 10:33N 31°27' E 121°28'7 7.5
2016-Sep-08 09:33N 31°23' E 121°36'10 9.3
2016-Sep-08 08:32N 31°19' E 121°45'  

Dump ship's entire track history